Time;durP1;ratioP1;P1;durP2;ratioP2;P2;SDS_P1;SDS_P2;PMS_P1;PMS_P2;Temp;Humidity;BMP_temperature;BMP_pressure;BME280_temperature;BME280_humidity;BME280_pressure;Samples;Min_cycle;Max_cycle;Signal;HPM_P1;HPM_P2
2022/01/05 00:01:09;;;;;;;35.63;7.10;;;5.70;99.90;;;;;;5046552;28;20190;-51
2022/01/05 00:03:36;;;;;;;30.93;7.07;;;6.10;99.90;;;;;;5031564;28;20285;-52
2022/01/05 00:06:03;;;;;;;43.93;9.33;;;6.40;99.90;;;;;;5032122;28;20186;-50
2022/01/05 00:08:29;;;;;;;25.53;5.47;;;;;;;;;;5030613;28;20184;-51
2022/01/05 00:10:55;;;;;;;43.47;9.27;;;;;;;;;;5032748;28;20824;-50
2022/01/05 00:13:21;;;;;;;38.50;8.60;;;;;;;;;;5038011;28;20563;-50
2022/01/05 00:15:47;;;;;;;51.60;11.07;;;;;;;;;;5014020;28;20191;-51
2022/01/05 00:18:13;;;;;;;37.20;7.83;;;;;;;;;;5034755;28;20194;-51
2022/01/05 00:20:39;;;;;;;39.47;8.40;;;;;;;;;;5034166;28;20188;-51
2022/01/05 00:23:05;;;;;;;27.60;6.23;;;;;;;;;;5027622;28;20710;-51
2022/01/05 00:25:30;;;;;;;44.77;9.53;;;5.40;99.90;;;;;;5030104;28;20208;-51
2022/01/05 00:27:56;;;;;;;43.87;9.07;;;5.50;99.90;;;;;;5032904;28;20184;-51
2022/01/05 00:30:21;;;;;;;42.77;9.20;;;5.40;99.90;;;;;;5033720;28;20759;-52
2022/01/05 00:32:47;;;;;;;62.00;12.87;;;;;;;;;;5026623;28;20660;-50
2022/01/05 00:35:13;;;;;;;41.47;8.70;;;5.40;99.90;;;;;;5032652;28;20368;-51
2022/01/05 00:37:39;;;;;;;50.20;10.67;;;5.40;99.90;;;;;;5028005;28;20207;-51
2022/01/05 00:40:06;;;;;;;41.53;9.27;;;5.40;99.90;;;;;;5027810;28;20185;-51
2022/01/05 00:42:32;;;;;;;30.67;6.77;;;5.50;99.90;;;;;;5031894;28;20534;-52
2022/01/05 00:44:57;;;;;;;94.70;19.07;;;5.50;99.90;;;;;;5026178;28;20253;-51
2022/01/05 00:47:23;;;;;;;22.57;4.73;;;5.50;99.90;;;;;;5035350;28;20215;-51
2022/01/05 00:49:49;;;;;;;21.43;4.63;;;5.30;99.90;;;;;;5031647;28;20192;-51
2022/01/05 00:52:14;;;;;;;36.50;8.13;;;;;;;;;;5033420;28;20204;-51
2022/01/05 00:54:41;;;;;;;36.83;7.20;;;;;;;;;;5026836;28;20219;-51
2022/01/05 00:57:07;;;;;;;24.83;5.33;;;5.30;99.90;;;;;;5033531;28;20835;-50
2022/01/05 00:59:33;;;;;;;30.80;6.53;;;;;;;;;;5038204;28;20179;-50
2022/01/05 01:01:58;;;;;;;44.63;9.47;;;5.40;99.90;;;;;;5031611;28;20188;-51
2022/01/05 01:04:24;;;;;;;33.97;7.20;;;5.40;99.90;;;;;;5029797;28;20184;-52
2022/01/05 01:06:50;;;;;;;32.83;7.37;;;5.40;99.90;;;;;;5029386;28;20281;-51
2022/01/05 01:09:16;;;;;;;21.40;4.63;;;;;;;;;;5031458;28;20214;-52
2022/01/05 01:11:41;;;;;;;14.23;3.53;;;;;;;;;;5035156;28;20323;-52
2022/01/05 01:14:08;;;;;;;47.03;10.03;;;;;;;;;;5029094;28;20203;-52
2022/01/05 01:16:33;;;;;;;37.27;7.87;;;5.30;99.90;;;;;;5031291;28;20207;-51
2022/01/05 01:18:59;;;;;;;34.50;7.60;;;;;;;;;;5033463;28;20547;-51
2022/01/05 01:21:25;;;;;;;69.70;15.00;;;5.00;99.90;;;;;;5014202;28;20374;-52
2022/01/05 01:23:57;;;;;;;31.33;6.97;;;;;;;;;;5028990;28;20203;-52
2022/01/05 01:26:28;;;;;;;38.70;8.03;;;5.40;99.90;;;;;;5032062;28;20200;-51
2022/01/05 01:28:54;;;;;;;47.30;10.30;;;;;;;;;;5030836;28;20184;-51
2022/01/05 01:31:20;;;;;;;41.93;8.93;;;5.30;99.90;;;;;;5030946;28;20187;-51
2022/01/05 01:33:47;;;;;;;30.50;6.80;;;5.20;99.90;;;;;;5028365;28;20372;-51
2022/01/05 01:36:13;;;;;;;33.27;7.07;;;4.90;99.90;;;;;;5028483;28;20187;-51
2022/01/05 01:38:39;;;;;;;34.40;7.43;;;;;;;;;;5028665;28;20191;-52
2022/01/05 01:41:05;;;;;;;38.77;8.37;;;4.80;99.90;;;;;;5029570;28;20183;-51
2022/01/05 01:43:31;;;;;;;39.03;8.67;;;;;;;;;;5031938;28;20211;-51
2022/01/05 01:45:57;;;;;;;69.20;14.67;;;4.70;99.90;;;;;;5027495;28;20245;-51
2022/01/05 01:48:23;;;;;;;42.70;8.93;;;;;;;;;;5030860;28;20887;-51
2022/01/05 01:50:48;;;;;;;31.07;6.67;;;;;;;;;;5033452;28;20558;-51
2022/01/05 01:53:14;;;;;;;33.33;7.30;;;4.60;99.90;;;;;;5032566;28;20203;-51
2022/01/05 01:55:40;;;;;;;30.13;6.17;;;;;;;;;;5033844;28;20806;-51
2022/01/05 01:58:07;;;;;;;26.33;5.33;;;4.70;99.90;;;;;;5037016;28;21017;-51
2022/01/05 02:00:33;;;;;;;30.63;6.40;;;;;;;;;;5041704;28;20271;-51
2022/01/05 02:02:59;;;;;;;28.90;6.30;;;;;;;;;;5012306;28;20275;-51
2022/01/05 02:05:25;;;;;;;36.30;7.77;;;;;;;;;;5027962;28;21255;-50
2022/01/05 02:07:51;;;;;;;53.73;11.70;;;;;;;;;;5031954;28;20713;-51
2022/01/05 02:10:17;;;;;;;41.87;8.60;;;4.60;99.90;;;;;;5028725;28;20188;-51
2022/01/05 02:12:43;;;;;;;19.70;4.87;;;;;;;;;;5034533;28;20215;-51
2022/01/05 02:15:10;;;;;;;35.00;8.00;;;;;;;;;;5029449;28;20242;-52
2022/01/05 02:17:49;;;;;;;24.97;5.47;;;4.40;99.90;;;;;;5036493;28;20188;-51
2022/01/05 02:20:24;;;;;;;30.47;6.37;;;4.60;99.90;;;;;;5035962;28;20195;-51
2022/01/05 02:22:51;;;;;;;40.73;8.90;;;5.00;99.90;;;;;;5025196;28;20498;-51
2022/01/05 02:25:17;;;;;;;42.80;9.00;;;;;;;;;;5036781;28;20640;-50
2022/01/05 02:27:45;;;;;;;33.97;7.10;;;4.60;99.90;;;;;;5032232;28;20210;-51
2022/01/05 02:30:17;;;;;;;51.27;10.50;;;4.60;99.90;;;;;;5033150;28;20184;-51
2022/01/05 02:32:43;;;;;;;42.33;8.90;;;;;;;;;;5038771;28;20690;-51
2022/01/05 02:35:10;;;;;;;33.97;7.20;;;;;;;;;;5040765;28;20214;-51
2022/01/05 02:37:47;;;;;;;69.33;14.00;;;4.70;99.90;;;;;;5024751;28;20184;-50
2022/01/05 02:40:15;;;;;;;69.27;13.87;;;4.70;99.90;;;;;;5028722;28;20198;-51
2022/01/05 02:42:41;;;;;;;42.50;9.03;;;;;;;;;;5034421;28;20206;-51
2022/01/05 02:45:08;;;;;;;32.93;6.87;;;4.80;99.90;;;;;;5025455;28;20606;-51
2022/01/05 02:47:34;;;;;;;56.00;11.60;;;;;;;;;;5027313;28;20265;-50
2022/01/05 02:50:01;;;;;;;36.60;7.73;;;4.60;99.90;;;;;;5038360;28;20191;-51
2022/01/05 02:52:26;;;;;;;56.10;11.97;;;4.40;99.90;;;;;;5028733;28;20203;-51
2022/01/05 02:54:52;;;;;;;36.70;7.70;;;4.80;99.90;;;;;;5033042;28;20203;-51
2022/01/05 02:57:18;;;;;;;28.97;6.27;;;;;;;;;;5044967;28;20180;-51
2022/01/05 02:59:44;;;;;;;46.87;9.77;;;;;;;;;;5039368;28;20185;-51
2022/01/05 03:02:09;;;;;;;40.73;8.63;;;;;;;;;;5033104;28;20569;-51
2022/01/05 03:04:35;;;;;;;24.10;5.20;;;4.70;99.90;;;;;;5044042;28;20189;-51
2022/01/05 03:07:01;;;;;;;45.70;9.40;;;;;;;;;;5030997;28;20559;-51
2022/01/05 03:09:27;;;;;;;30.30;6.53;;;;;;;;;;5035442;28;20172;-51
2022/01/05 03:11:53;;;;;;;43.13;9.17;;;;;;;;;;5033226;28;20324;-51
2022/01/05 03:14:20;;;;;;;35.37;7.33;;;4.70;99.90;;;;;;5035673;28;20207;-51
2022/01/05 03:16:46;;;;;;;46.47;9.67;;;4.50;99.90;;;;;;5032422;28;20198;-51
2022/01/05 03:19:12;;;;;;;42.47;8.87;;;;;;;;;;5034981;28;20180;-51
2022/01/05 03:21:37;;;;;;;52.90;11.20;;;;;;;;;;5032213;28;20611;-51
2022/01/05 03:24:03;;;;;;;51.23;10.53;;;;;;;;;;5032206;28;20586;-51
2022/01/05 03:26:29;;;;;;;42.20;8.93;;;;;;;;;;5033012;28;20196;-51
2022/01/05 03:28:55;;;;;;;41.20;8.57;;;;;;;;;;5038406;28;20184;-51
2022/01/05 03:31:21;;;;;;;58.67;12.23;;;;;;;;;;5033955;28;20241;-51
2022/01/05 03:33:47;;;;;;;56.40;11.37;;;;;;;;;;5028489;28;20747;-51
2022/01/05 03:36:13;;;;;;;19.77;4.53;;;;;;;;;;5034634;28;20275;-51
2022/01/05 03:38:39;;;;;;;34.60;7.40;;;4.50;99.90;;;;;;5028697;28;21009;-51
2022/01/05 03:41:04;;;;;;;40.77;8.20;;;4.70;99.90;;;;;;5018057;28;20187;-51
2022/01/05 03:43:30;;;;;;;47.57;9.83;;;;;;;;;;5037504;28;20668;-51
2022/01/05 03:45:56;;;;;;;40.43;8.43;;;;;;;;;;5034031;28;20191;-51
2022/01/05 03:48:22;;;;;;;49.97;12.47;;;;;;;;;;5058923;23;20231;-49
2022/01/05 03:50:48;;;;;;;75.83;17.60;;;;;;;;;;5047961;28;20615;-49
2022/01/05 03:53:14;;;;;;;44.07;11.17;;;3.80;99.90;;;;;;5048037;28;20647;-49
2022/01/05 03:55:43;;;;;;;41.53;10.57;;;4.70;99.90;;;;;;5055568;28;20206;-49
2022/01/05 03:58:09;;;;;;;30.80;8.67;;;4.80;99.90;;;;;;5062662;28;20171;-50
2022/01/05 04:00:41;;;;;;;56.80;14.13;;;4.80;99.90;;;;;;5053011;28;20656;-49
2022/01/05 04:03:07;;;;;;;36.13;9.60;;;;;;;;;;5053768;28;20206;-50
2022/01/05 04:05:33;;;;;;;35.87;9.77;;;;;;;;;;5053408;28;20207;-50
2022/01/05 04:07:59;;;;;;;72.33;17.23;;;;;;;;;;5047501;28;20198;-50
2022/01/05 04:10:25;;;;;;;37.90;10.33;;;;;;;;;;5054175;28;20281;-49
2022/01/05 04:12:51;;;;;;;43.23;11.10;;;;;;;;;;5053678;28;20733;-50
2022/01/05 04:15:17;;;;;;;38.17;10.30;;;;;;;;;;5032626;28;20214;-49
2022/01/05 04:17:44;;;;;;;45.43;11.93;;;;;;;;;;5042275;28;20195;-49
2022/01/05 04:20:11;;;;;;;48.17;11.97;;;4.60;99.90;;;;;;5057089;28;20638;-49
2022/01/05 04:22:37;;;;;;;73.00;17.07;;;;;;;;;;5051490;28;20257;-49
2022/01/05 04:25:03;;;;;;;41.57;10.80;;;4.60;99.90;;;;;;5056001;28;20222;-49
2022/01/05 04:27:29;;;;;;;50.97;12.00;;;;;;;;;;5054500;28;20187;-50
2022/01/05 04:29:54;;;;;;;37.93;9.60;;;4.40;99.90;;;;;;5055120;28;20211;-49
2022/01/05 04:32:20;;;;;;;23.43;7.27;;;;;;;;;;5055236;28;20207;-50
2022/01/05 04:34:46;;;;;;;57.30;13.10;;;4.20;99.90;;;;;;5055894;28;20233;-50
2022/01/05 04:37:12;;;;;;;56.70;13.87;;;;;;;;;;5052559;28;20748;-49
2022/01/05 04:39:37;;;;;;;43.20;10.67;;;3.90;99.90;;;;;;5049454;28;20175;-49
2022/01/05 04:42:04;;;;;;;48.23;11.60;;;3.70;99.90;;;;;;5050319;28;20183;-50
2022/01/05 04:44:30;;;;;;;65.27;15.50;;;3.80;99.90;;;;;;5048377;28;20187;-49
2022/01/05 04:46:56;;;;;;;60.97;14.33;;;;;;;;;;5046797;28;20703;-50
2022/01/05 04:49:22;;;;;;;56.20;14.53;;;;;;;;;;5046293;28;20188;-50
2022/01/05 04:51:48;;;;;;;44.50;12.80;;;;;;;;;;5052340;28;20190;-50
2022/01/05 04:54:15;;;;;;;64.87;18.07;;;;;;;;;;5045612;28;20217;-50
2022/01/05 04:56:40;;;;;;;34.83;12.03;;;;;;;;;;5054997;28;20261;-49
2022/01/05 04:59:06;;;;;;;61.60;18.03;;;;;;;;;;5058115;28;20267;-50
2022/01/05 05:01:32;;;;;;;96.80;39.00;;;;;;;;;;5053647;28;20586;-49
2022/01/05 05:03:58;;;;;;;109.43;46.80;;;;;;;;;;5046346;28;20203;-49
2022/01/05 05:06:24;;;;;;;80.40;32.30;;;;;;;;;;5050542;28;20281;-50
2022/01/05 05:08:50;;;;;;;51.27;19.10;;;;;;;;;;5044404;28;20253;-49
2022/01/05 05:11:16;;;;;;;61.27;26.97;;;;;;;;;;5051641;28;20190;-50
2022/01/05 05:13:42;;;;;;;69.10;24.83;;;;;;;;;;5033614;28;20219;-49
2022/01/05 05:16:08;;;;;;;77.00;28.57;;;;;;;;;;5049001;28;20202;-50
2022/01/05 05:18:34;;;;;;;62.53;25.23;;;;;;;;;;5048920;28;20199;-50
2022/01/05 05:21:01;;;;;;;68.87;29.40;;;;;;;;;;5051233;28;20197;-49
2022/01/05 05:23:27;;;;;;;127.00;47.97;;;;;;;;;;5044056;28;20205;-50
2022/01/05 05:25:53;;;;;;;99.03;41.53;;;;;;;;;;5053610;28;20187;-50
2022/01/05 05:28:19;;;;;;;79.73;32.53;;;;;;;;;;5053371;28;20186;-50
2022/01/05 05:30:45;;;;;;;79.83;35.23;;;;;;;;;;5047185;28;20183;-49
2022/01/05 05:33:11;;;;;;;80.20;36.50;;;;;;;;;;5054080;28;20214;-49
2022/01/05 05:35:38;;;;;;;90.53;40.67;;;;;;;;;;5051433;28;20253;-50
2022/01/05 05:38:04;;;;;;;78.73;30.20;;;;;;;;;;5044508;28;20183;-50
2022/01/05 05:40:29;;;;;;;77.23;31.33;;;;;;;;;;5052036;28;20236;-49
2022/01/05 05:42:55;;;;;;;72.47;30.30;;;;;;;;;;5046655;28;20531;-49
2022/01/05 05:45:21;;;;;;;61.53;27.63;;;;;;;;;;5055141;28;20599;-50
2022/01/05 05:47:47;;;;;;;48.77;23.73;;;;;;;;;;5052951;28;20248;-50
2022/01/05 05:50:13;;;;;;;104.47;42.10;;;;;;;;;;5056956;28;20240;-50
2022/01/05 05:52:39;;;;;;;104.00;44.10;;;;;;;;;;5049473;28;20658;-49
2022/01/05 05:55:05;;;;;;;79.43;33.83;;;;;;;;;;5053773;28;20720;-49
2022/01/05 05:57:31;;;;;;;58.80;29.40;;;;;;;;;;5058149;28;20190;-50
2022/01/05 05:59:57;;;;;;;95.43;41.10;;;;;;;;;;5053158;28;20236;-49
2022/01/05 06:02:23;;;;;;;109.73;44.97;;;;;;;;;;5043400;28;20202;-49
2022/01/05 06:04:49;;;;;;;77.83;31.33;;;;;;;;;;5048521;28;20694;-49
2022/01/05 06:07:15;;;;;;;113.50;50.20;;;;;;;;;;5050191;28;20183;-49
2022/01/05 06:09:40;;;;;;;67.37;30.33;;;3.20;99.90;;;;;;5049297;28;20238;-50
2022/01/05 06:12:07;;;;;;;143.13;57.00;;;;;;;;;;5047850;28;20365;-49
2022/01/05 06:14:33;;;;;;;97.60;38.90;;;;;;;;;;5042122;28;20210;-49
2022/01/05 06:16:59;;;;;;;107.77;41.87;;;;;;;;;;5049472;28;20175;-49
2022/01/05 06:19:25;;;;;;;109.93;38.93;;;;;;;;;;5047822;28;20244;-50
2022/01/05 06:21:51;;;;;;;76.63;30.20;;;;;;;;;;5047860;28;20637;-49
2022/01/05 06:24:17;;;;;;;69.20;28.93;;;;;;;;;;5050191;28;23435;-49
2022/01/05 06:26:44;;;;;;;80.37;31.57;;;;;;;;;;5057691;28;20202;-49
2022/01/05 06:29:12;;;;;;;69.60;26.80;;;;;;;;;;5060594;28;20258;-49
2022/01/05 06:31:39;;;;;;;58.90;24.17;;;;;;;;;;5056989;28;20198;-50
2022/01/05 06:34:04;;;;;;;44.70;20.37;;;;;;;;;;5061645;28;20282;-50
2022/01/05 06:36:30;;;;;;;85.50;32.67;;;;;;;;;;5062269;28;20323;-49
2022/01/05 06:38:56;;;;;;;51.03;20.20;;;;;;;;;;5052582;28;20258;-49
2022/01/05 06:41:22;;;;;;;37.93;16.70;;;;;;;;;;5061208;28;20183;-49
2022/01/05 06:43:48;;;;;;;85.47;30.57;;;;;;;;;;5054550;28;20278;-49
2022/01/05 06:46:14;;;;;;;80.33;31.27;;;;;;;;;;5056635;28;20321;-50
2022/01/05 06:48:40;;;;;;;97.70;39.23;;;;;;;;;;5052392;28;21038;-49
2022/01/05 06:51:06;;;;;;;65.53;31.27;;;;;;;;;;5055672;28;20195;-50
2022/01/05 06:53:32;;;;;;;102.80;41.13;;;;;;;;;;5050571;28;20214;-50
2022/01/05 06:55:58;;;;;;;99.03;43.53;;;;;;;;;;5053953;28;20395;-50
2022/01/05 06:58:24;;;;;;;132.30;53.43;;;;;;;;;;5049229;28;21026;-49
2022/01/05 07:00:49;;;;;;;85.27;36.70;;;2.80;99.90;;;;;;5048920;28;20663;-49
2022/01/05 07:03:15;;;;;;;79.57;33.60;;;;;;;;;;5041565;28;20214;-49
2022/01/05 07:05:41;;;;;;;64.03;27.33;;;;;;;;;;5065122;28;20240;-49
2022/01/05 07:08:07;;;;;;;56.60;27.03;;;;;;;;;;5057022;28;20801;-49
2022/01/05 07:10:33;;;;;;;74.77;34.77;;;;;;;;;;5055268;28;20284;-49
2022/01/05 07:12:59;;;;;;;81.33;34.33;;;;;;;;;;5054924;28;20242;-49
2022/01/05 07:15:25;;;;;;;144.13;57.60;;;;;;;;;;5036521;28;20245;-49
2022/01/05 07:17:51;;;;;;;79.80;36.87;;;;;;;;;;5047592;28;20197;-48
2022/01/05 07:20:17;;;;;;;105.37;45.93;;;;;;;;;;5044740;28;20680;-49
2022/01/05 07:22:43;;;;;;;89.03;40.37;;;;;;;;;;5048277;28;20211;-49
2022/01/05 07:25:09;;;;;;;70.80;34.53;;;;;;;;;;5055825;28;20199;-49
2022/01/05 07:27:36;;;;;;;74.23;36.17;;;;;;;;;;5058908;28;20674;-48
2022/01/05 07:30:02;;;;;;;83.47;40.73;;;;;;;;;;5050324;28;20187;-48
2022/01/05 07:32:28;;;;;;;123.90;51.37;;;;;;;;;;5048614;28;20217;-48
2022/01/05 07:34:54;;;;;;;85.57;33.60;;;;;;;;;;5040310;28;20241;-48
2022/01/05 07:37:20;;;;;;;172.77;65.30;;;;;;;;;;5045642;28;20191;-48
2022/01/05 07:39:46;;;;;;;118.07;36.47;;;;;;;;;;5045012;28;20386;-48
2022/01/05 07:42:12;;;;;;;77.43;29.83;;;;;;;;;;5053685;28;20611;-48
2022/01/05 07:44:39;;;;;;;104.70;39.27;;;2.70;99.90;;;;;;5056699;28;20213;-48
2022/01/05 07:47:06;;;;;;;104.40;39.67;;;2.80;99.90;;;;;;5047535;28;20239;-48
2022/01/05 07:49:31;;;;;;;101.23;39.17;;;;;;;;;;5042292;28;20183;-48
2022/01/05 07:51:57;;;;;;;56.60;15.83;;;;;;;;;;5058548;28;20411;-48
2022/01/05 07:54:23;;;;;;;82.13;23.20;;;;;;;;;;5045555;28;20214;-48
2022/01/05 07:56:49;;;;;;;54.60;18.83;;;;;;;;;;5053886;28;20734;-48
2022/01/05 07:59:15;;;;;;;64.93;25.13;;;;;;;;;;5052794;28;20186;-50
2022/01/05 08:01:41;;;;;;;58.20;17.60;;;;;;;;;;5035372;28;20198;-48
2022/01/05 08:04:07;;;;;;;59.43;18.80;;;;;;;;;;5053167;28;20207;-48
2022/01/05 08:06:33;;;;;;;120.97;35.40;;;;;;;;;;5054432;28;20233;-48
2022/01/05 08:09:00;;;;;;;35.17;15.23;;;;;;;;;;5051906;28;20187;-48
2022/01/05 08:11:25;;;;;;;93.30;32.33;;;3.10;99.90;;;;;;5028626;28;20802;-49
2022/01/05 08:13:52;;;;;;;337.23;106.57;;;;;;;;;;5039328;28;20269;-48
2022/01/05 08:16:18;;;;;;;52.50;18.80;;;;;;;;;;5032574;28;20175;-47
2022/01/05 08:18:44;;;;;;;62.73;20.73;;;;;;;;;;5054011;28;20648;-48
2022/01/05 08:21:11;;;;;;;59.37;20.73;;;2.80;99.90;;;;;;5048214;28;20269;-48
2022/01/05 08:23:37;;;;;;;56.30;21.77;;;;;;;;;;5044055;28;20260;-48
2022/01/05 08:26:04;;;;;;;75.77;25.20;;;3.00;99.90;;;;;;5053308;28;20242;-48
2022/01/05 08:28:30;;;;;;;140.37;43.40;;;;;;;;;;5048143;28;20319;-49
2022/01/05 08:30:55;;;;;;;74.57;28.40;;;3.30;99.90;;;;;;5055152;28;20638;-50
2022/01/05 08:33:21;;;;;;;71.50;27.93;;;;;;;;;;5050994;28;20237;-49
2022/01/05 08:35:48;;;;;;;73.20;27.77;;;3.30;99.90;;;;;;5055703;28;20183;-49
2022/01/05 08:38:15;;;;;;;60.40;24.43;;;;;;;;;;5047875;28;20190;-49
2022/01/05 08:40:41;;;;;;;82.23;33.80;;;3.30;99.90;;;;;;5046899;28;20198;-48
2022/01/05 08:43:07;;;;;;;172.47;59.20;;;4.60;99.90;;;;;;5035915;28;20236;-48
2022/01/05 08:45:34;;;;;;;81.13;36.07;;;3.20;99.90;;;;;;5035915;28;20178;-48
2022/01/05 08:48:00;;;;;;;66.20;32.43;;;;;;;;;;5042830;28;20570;-48
2022/01/05 08:50:29;;;;;;;74.07;36.57;;;3.30;99.90;;;;;;5052580;28;20244;-48
2022/01/05 08:52:57;;;;;;;107.70;49.40;;;;;;;;;;5049606;28;20214;-48
2022/01/05 08:55:25;;;;;;;90.30;42.10;;;3.10;99.90;;;;;;5044912;28;20229;-48
2022/01/05 08:57:51;;;;;;;118.50;46.60;;;;;;;;;;5052957;28;20266;-48
2022/01/05 09:00:17;;;;;;;83.27;37.70;;;;;;;;;;5048830;28;20201;-48
2022/01/05 09:02:44;;;;;;;123.87;57.17;;;;;;;;;;5024466;28;20198;-48
2022/01/05 09:05:10;;;;;;;131.47;70.63;;;;;;;;;;5049572;28;20221;-48
2022/01/05 09:07:35;;;;;;;135.67;68.17;;;3.10;99.90;;;;;;5050274;28;20206;-48
2022/01/05 09:10:04;;;;;;;108.20;50.27;;;;;;;;;;5054917;28;20230;-48
2022/01/05 09:12:30;;;;;;;87.33;57.47;;;;;;;;;;5050942;28;20214;-48
2022/01/05 09:14:56;;;;;;;90.73;62.67;;;;;;;;;;5053696;28;20567;-48
2022/01/05 09:17:22;;;;;;;97.23;72.53;;;;;;;;;;5063433;28;20187;-48
2022/01/05 09:19:48;;;;;;;122.83;82.63;;;;;;;;;;5053770;28;20216;-48
2022/01/05 09:22:14;;;;;;;125.57;69.13;;;;;;;;;;5059546;28;20317;-48
2022/01/05 09:24:40;;;;;;;175.60;109.70;;;3.40;99.90;;;;;;5053208;28;20311;-48
2022/01/05 09:27:06;;;;;;;135.13;92.47;;;;;;;;;;5046378;28;20218;-48
2022/01/05 09:29:33;;;;;;;144.17;97.40;;;;;;;;;;5062149;28;20722;-48
2022/01/05 09:32:03;;;;;;;204.60;119.77;;;;;;;;;;5058413;28;20199;-48
2022/01/05 09:34:33;;;;;;;194.07;115.20;;;3.50;99.90;;;;;;5043879;28;20207;-48
2022/01/05 09:37:06;;;;;;;116.63;41.93;;;;;;;;;;5051926;28;20190;-48
2022/01/05 09:42:16;;;;;;;55.80;17.97;;;;;;;;;;5050156;28;20205;-48
2022/01/05 09:44:44;;;;;;;114.40;32.50;;;3.40;99.90;;;;;;5051999;28;20911;-48
2022/01/05 09:47:49;;;;;;;150.00;38.73;;;3.40;99.90;;;;;;5060799;22;20199;-48
2022/01/05 09:50:15;;;;;;;112.70;26.60;;;;;;;;;;4987950;28;20948;-48
2022/01/05 09:52:44;;;;;;;136.97;32.93;;;1.20;99.90;;;;;;5007020;28;20287;-48
2022/01/05 09:55:11;;;;;;;56.37;17.43;;;3.20;99.90;;;;;;5005518;28;20681;-51
2022/01/05 09:57:39;;;;;;;79.03;27.53;;;3.30;99.90;;;;;;5016004;28;20294;-50
2022/01/05 10:00:05;;;;;;;72.47;31.23;;;3.10;99.90;;;;;;5018227;28;20267;-51
2022/01/05 10:02:31;;;;;;;136.50;87.97;;;;;;;;;;5021078;28;20212;-49
2022/01/05 10:04:58;;;;;;;140.73;47.40;;;3.30;99.90;;;;;;5010225;28;20234;-48
2022/01/05 10:07:24;;;;;;;83.47;33.30;;;;;;;;;;5014324;28;20196;-51
2022/01/05 10:09:50;;;;;;;130.70;83.50;;;;;;;;;;5017583;28;20188;-51
2022/01/05 10:12:16;;;;;;;177.40;101.67;;;;;;;;;;5014741;28;20274;-51
2022/01/05 10:14:44;;;;;;;187.23;102.07;;;3.40;99.90;;;;;;5017273;28;20221;-51
2022/01/05 10:17:13;;;;;;;136.57;47.70;;;3.40;99.90;;;;;;5007839;28;20173;-50
2022/01/05 10:19:39;;;;;;;121.90;77.13;;;;;;;;;;5018484;28;20189;-51
2022/01/05 10:22:33;;;;;;;189.57;102.03;;;3.40;99.90;;;;;;5013406;28;20560;-51
2022/01/05 10:24:59;;;;;;;174.67;95.33;;;;;;;;;;4992138;28;20224;-51
2022/01/05 10:27:26;;;;;;;98.23;26.13;;;3.90;99.90;;;;;;5006059;28;20199;-51
2022/01/05 10:30:00;;;;;;;118.67;24.37;;;3.40;99.90;;;;;;5005882;28;20180;-50
2022/01/05 10:32:29;;;;;;;103.03;28.07;;;3.50;99.90;;;;;;5014768;28;20341;-49
2022/01/05 10:34:59;;;;;;;54.10;14.60;;;;;;;;;;5017044;28;20239;-50
2022/01/05 10:37:26;;;;;;;87.83;19.07;;;;;;;;;;5013754;28;20195;-50
2022/01/05 10:40:04;;;;;;;55.10;12.87;;;;;;;;;;5015025;28;20196;-49
2022/01/05 10:42:32;;;;;;;135.37;26.70;;;;;;;;;;4993167;28;20219;-49
2022/01/05 10:44:58;;;;;;;87.93;21.50;;;;;;;;;;4998676;28;20752;-49
2022/01/05 10:47:25;;;;;;;76.53;18.70;;;;;;;;;;5016243;28;20192;-49
2022/01/05 10:49:51;;;;;;;67.27;18.13;;;;;;;;;;5009733;28;20196;-50
2022/01/05 10:52:21;;;;;;;92.07;25.63;;;;;;;;;;5003589;28;20301;-50
2022/01/05 10:54:48;;;;;;;107.00;21.60;;;;;;;;;;5005728;28;20263;-49
2022/01/05 10:57:15;;;;;;;41.47;10.20;;;;;;;;;;5009238;28;20196;-50
2022/01/05 10:59:43;;;;;;;75.37;13.97;;;;;;;;;;5004813;28;20303;-49
2022/01/05 11:02:22;;;;;;;58.40;11.37;;;;;;;;;;5014797;28;20196;-49
2022/01/05 11:04:49;;;;;;;75.17;15.43;;;;;;;;;;5008226;28;20208;-50
2022/01/05 11:07:22;;;;;;;180.53;38.90;;;;;;;;;;5000458;28;20184;-50
2022/01/05 11:09:52;;;;;;;45.03;10.23;;;;;;;;;;5007458;28;20203;-50
2022/01/05 11:12:18;;;;;;;55.80;13.17;;;;;;;;;;5010772;28;20345;-50
2022/01/05 11:14:44;;;;;;;66.63;16.50;;;;;;;;;;5002862;28;20731;-50
2022/01/05 11:17:16;;;;;;;58.83;14.30;;;;;;;;;;5018350;28;20656;-50
2022/01/05 11:19:42;;;;;;;65.67;16.90;;;;;;;;;;5012356;28;20192;-50
2022/01/05 11:22:08;;;;;;;107.17;24.13;;;;;;;;;;5008270;28;20208;-50
2022/01/05 11:24:45;;;;;;;41.00;7.70;;;;;;;;;;5009533;28;20188;-50
2022/01/05 11:27:12;;;;;;;73.43;13.50;;;;;;;;;;5010598;28;20272;-50
2022/01/05 11:29:39;;;;;;;50.47;9.37;;;;;;;;;;5008436;28;27823;-50
2022/01/05 11:32:05;;;;;;;77.43;14.13;;;;;;;;;;5010854;28;20180;-50
2022/01/05 11:34:31;;;;;;;133.30;23.73;;;;;;;;;;5005099;28;20212;-50
2022/01/05 11:36:58;;;;;;;56.83;10.60;;;;;;;;;;5017346;28;20279;-51
2022/01/05 11:39:25;;;;;;;72.00;13.37;;;;;;;;;;5003433;28;20188;-51
2022/01/05 11:41:52;;;;;;;33.50;6.20;;;4.20;99.90;;;;;;5000743;28;20185;-51
2022/01/05 11:44:18;;;;;;;41.97;8.07;;;;;;;;;;5011345;28;20181;-51
2022/01/05 11:46:46;;;;;;;48.67;9.17;;;4.20;99.90;;;;;;5007463;28;20188;-51
2022/01/05 11:49:14;;;;;;;53.80;10.23;;;4.10;99.90;;;;;;5006138;28;20253;-51
2022/01/05 11:51:42;;;;;;;47.70;9.17;;;4.10;99.90;;;;;;5003158;28;20219;-51
2022/01/05 11:54:23;;;;;;;63.03;12.00;;;4.00;99.90;;;;;;4999778;28;20212;-48
2022/01/05 11:56:52;;;;;;;90.23;16.97;;;4.00;99.90;;;;;;5005608;28;20216;-51
2022/01/05 11:59:25;;;;;;;46.83;9.10;;;4.00;99.90;;;;;;5010420;28;20188;-50
2022/01/05 12:02:04;;;;;;;34.87;6.93;;;4.00;99.90;;;;;;5014836;28;20674;-51
2022/01/05 12:04:31;;;;;;;54.73;10.37;;;4.20;99.90;;;;;;5005322;28;20184;-51
2022/01/05 12:07:00;;;;;;;56.00;10.53;;;;;;;;;;5006987;28;20189;-51
2022/01/05 12:09:28;;;;;;;65.10;12.60;;;4.00;99.90;;;;;;5001727;28;20205;-51
2022/01/05 12:11:56;;;;;;;64.27;12.17;;;4.00;99.90;;;;;;5007055;28;20193;-51
2022/01/05 12:14:22;;;;;;;65.57;12.73;;;;;;;;;;5000924;28;20204;-51
2022/01/05 12:17:03;;;;;;;75.30;13.57;;;4.00;99.90;;;;;;5003996;28;20595;-50
2022/01/05 12:19:46;;;;;;;53.97;10.67;;;4.00;99.90;;;;;;4996924;28;20261;-51
2022/01/05 12:22:27;;;;;;;67.60;13.17;;;4.10;99.90;;;;;;5000541;28;20216;-51
2022/01/05 12:25:04;;;;;;;49.90;9.77;;;2.80;99.90;;;;;;4997843;28;20275;-50
2022/01/05 12:27:32;;;;;;;74.13;14.17;;;4.00;99.90;;;;;;5003012;28;20323;-50
2022/01/05 12:29:59;;;;;;;71.83;13.33;;;4.00;99.90;;;;;;4999851;28;20207;-50
2022/01/05 12:32:33;;;;;;;49.60;10.17;;;3.70;99.90;;;;;;5005218;28;20742;-50
2022/01/05 12:35:00;;;;;;;49.63;9.30;;;4.10;99.90;;;;;;4995859;28;20712;-50
2022/01/05 12:37:48;;;;;;;91.73;18.63;;;4.10;99.90;;;;;;5005286;28;20180;-50
2022/01/05 12:40:27;;;;;;;53.33;10.17;;;4.10;99.90;;;;;;5002617;28;20192;-50
2022/01/05 12:43:06;;;;;;;55.97;10.87;;;4.20;99.90;;;;;;5002458;28;20216;-50
2022/01/05 12:45:46;;;;;;;44.97;8.63;;;4.10;99.90;;;;;;5009994;28;20184;-50
2022/01/05 12:48:37;;;;;;;71.77;13.97;;;4.20;99.90;;;;;;5000986;28;20229;-50
2022/01/05 12:51:14;;;;;;;37.03;7.33;;;4.20;99.90;;;;;;5007670;28;20279;-50
2022/01/05 12:53:53;;;;;;;32.33;6.57;;;4.20;99.90;;;;;;5004724;28;20243;-50
2022/01/05 12:56:24;;;;;;;39.30;7.80;;;4.00;99.90;;;;;;5009658;28;20681;-50
2022/01/05 12:58:51;;;;;;;39.17;7.43;;;4.30;99.90;;;;;;5006994;28;20192;-50
2022/01/05 13:01:23;;;;;;;59.53;10.90;;;4.10;99.90;;;;;;5009712;28;20207;-50
2022/01/05 13:03:49;;;;;;;53.23;10.17;;;;;;;;;;4998531;28;20211;-50
2022/01/05 13:06:21;;;;;;;42.33;8.20;;;4.40;99.90;;;;;;5009058;28;20185;-50
2022/01/05 13:08:48;;;;;;;39.07;7.53;;;4.30;99.90;;;;;;5008432;28;20188;-50
2022/01/05 13:11:17;;;;;;;62.50;11.90;;;4.30;99.90;;;;;;5007313;28;20188;-50
2022/01/05 13:13:43;;;;;;;68.50;13.47;;;;;;;;;;4999724;28;20205;-50
2022/01/05 13:16:09;;;;;;;47.40;9.17;;;4.50;99.90;;;;;;5010850;28;20263;-50
2022/01/05 13:18:35;;;;;;;64.30;11.73;;;;;;;;;;5003229;28;20190;-50
2022/01/05 13:21:01;;;;;;;51.87;10.20;;;;;;;;;;5005691;28;20288;-50
2022/01/05 13:23:27;;;;;;;87.57;17.07;;;;;;;;;;5004741;28;20208;-50
2022/01/05 13:25:53;;;;;;;38.93;7.37;;;;;;;;;;5011203;28;20192;-50
2022/01/05 13:28:20;;;;;;;34.57;6.50;;;;;;;;;;5014730;28;20196;-50
2022/01/05 13:30:46;;;;;;;34.10;6.60;;;;;;;;;;5015864;28;20184;-50
2022/01/05 13:33:15;;;;;;;146.93;27.60;;;;;;;;;;5009137;28;20262;-50
2022/01/05 13:35:42;;;;;;;39.30;7.57;;;;;;;;;;5001628;28;20204;-50
2022/01/05 13:38:14;;;;;;;44.57;9.00;;;3.90;99.90;;;;;;5007667;28;20184;-50
2022/01/05 13:40:44;;;;;;;48.57;9.60;;;;;;;;;;4999018;28;20196;-50
2022/01/05 13:43:12;;;;;;;39.90;8.10;;;4.20;99.90;;;;;;5005160;28;20824;-50